sensor_id;sensor_type;location;lat;lon;timestamp;P1;durP1;ratioP1;P2;durP2;ratioP2
12441;SDS011;6285;48.804;9.220;2023-10-13T00:00:49;15.55;;;9.23;;
12441;SDS011;6285;48.804;9.220;2023-10-13T00:03:22;12.50;;;8.73;;
12441;SDS011;6285;48.804;9.220;2023-10-13T00:05:50;12.82;;;9.45;;
12441;SDS011;6285;48.804;9.220;2023-10-13T00:08:18;13.82;;;9.27;;
12441;SDS011;6285;48.804;9.220;2023-10-13T00:10:49;13.32;;;9.10;;
12441;SDS011;6285;48.804;9.220;2023-10-13T00:13:16;16.90;;;9.77;;
12441;SDS011;6285;48.804;9.220;2023-10-13T00:15:46;14.27;;;9.23;;
12441;SDS011;6285;48.804;9.220;2023-10-13T00:18:22;12.85;;;9.52;;
12441;SDS011;6285;48.804;9.220;2023-10-13T00:20:51;14.75;;;9.60;;
12441;SDS011;6285;48.804;9.220;2023-10-13T00:23:21;14.63;;;9.20;;
12441;SDS011;6285;48.804;9.220;2023-10-13T00:25:52;12.88;;;9.65;;
12441;SDS011;6285;48.804;9.220;2023-10-13T00:28:27;12.90;;;9.13;;
12441;SDS011;6285;48.804;9.220;2023-10-13T00:31:02;17.40;;;10.20;;
12441;SDS011;6285;48.804;9.220;2023-10-13T00:33:35;14.27;;;10.13;;
12441;SDS011;6285;48.804;9.220;2023-10-13T00:36:03;14.55;;;9.82;;
12441;SDS011;6285;48.804;9.220;2023-10-13T00:38:30;15.23;;;9.77;;
12441;SDS011;6285;48.804;9.220;2023-10-13T00:40:58;16.40;;;10.35;;
12441;SDS011;6285;48.804;9.220;2023-10-13T00:43:32;15.38;;;10.13;;
12441;SDS011;6285;48.804;9.220;2023-10-13T00:46:02;15.13;;;10.13;;
12441;SDS011;6285;48.804;9.220;2023-10-13T00:48:34;14.95;;;9.80;;
12441;SDS011;6285;48.804;9.220;2023-10-13T00:51:08;18.23;;;10.40;;
12441;SDS011;6285;48.804;9.220;2023-10-13T00:53:43;16.40;;;9.93;;
12441;SDS011;6285;48.804;9.220;2023-10-13T00:56:10;17.85;;;9.85;;
12441;SDS011;6285;48.804;9.220;2023-10-13T00:58:45;16.05;;;10.63;;
12441;SDS011;6285;48.804;9.220;2023-10-13T01:01:13;15.52;;;10.50;;
12441;SDS011;6285;48.804;9.220;2023-10-13T01:03:48;18.58;;;10.70;;
12441;SDS011;6285;48.804;9.220;2023-10-13T01:06:16;16.67;;;10.10;;
12441;SDS011;6285;48.804;9.220;2023-10-13T01:08:44;15.60;;;10.05;;
12441;SDS011;6285;48.804;9.220;2023-10-13T01:11:15;16.98;;;10.23;;
12441;SDS011;6285;48.804;9.220;2023-10-13T01:13:43;17.13;;;10.20;;
12441;SDS011;6285;48.804;9.220;2023-10-13T01:16:09;14.80;;;10.02;;
12441;SDS011;6285;48.804;9.220;2023-10-13T01:18:37;15.07;;;9.95;;
12441;SDS011;6285;48.804;9.220;2023-10-13T01:21:12;13.07;;;10.20;;
12441;SDS011;6285;48.804;9.220;2023-10-13T01:23:42;14.73;;;9.75;;
12441;SDS011;6285;48.804;9.220;2023-10-13T01:26:09;16.67;;;9.50;;
12441;SDS011;6285;48.804;9.220;2023-10-13T01:28:38;14.45;;;10.18;;
12441;SDS011;6285;48.804;9.220;2023-10-13T01:31:10;13.68;;;9.90;;
12441;SDS011;6285;48.804;9.220;2023-10-13T01:33:49;16.42;;;10.05;;
12441;SDS011;6285;48.804;9.220;2023-10-13T01:36:18;18.08;;;9.95;;
12441;SDS011;6285;48.804;9.220;2023-10-13T01:38:47;15.57;;;10.55;;
12441;SDS011;6285;48.804;9.220;2023-10-13T01:41:13;13.68;;;10.07;;
12441;SDS011;6285;48.804;9.220;2023-10-13T01:43:40;13.95;;;9.82;;
12441;SDS011;6285;48.804;9.220;2023-10-13T01:46:06;17.02;;;10.20;;
12441;SDS011;6285;48.804;9.220;2023-10-13T01:48:34;16.52;;;10.48;;
12441;SDS011;6285;48.804;9.220;2023-10-13T01:51:04;11.85;;;9.23;;
12441;SDS011;6285;48.804;9.220;2023-10-13T01:53:34;15.15;;;9.88;;
12441;SDS011;6285;48.804;9.220;2023-10-13T01:56:03;18.10;;;10.57;;
12441;SDS011;6285;48.804;9.220;2023-10-13T01:58:35;14.57;;;9.98;;
12441;SDS011;6285;48.804;9.220;2023-10-13T02:01:02;14.82;;;9.63;;
12441;SDS011;6285;48.804;9.220;2023-10-13T02:03:29;15.63;;;10.27;;
12441;SDS011;6285;48.804;9.220;2023-10-13T02:05:56;11.90;;;9.57;;
12441;SDS011;6285;48.804;9.220;2023-10-13T02:08:29;15.95;;;9.93;;
12441;SDS011;6285;48.804;9.220;2023-10-13T02:10:57;14.23;;;9.75;;
12441;SDS011;6285;48.804;9.220;2023-10-13T02:13:25;13.73;;;9.60;;
12441;SDS011;6285;48.804;9.220;2023-10-13T02:15:53;17.55;;;9.50;;
12441;SDS011;6285;48.804;9.220;2023-10-13T02:18:21;15.75;;;10.27;;
12441;SDS011;6285;48.804;9.220;2023-10-13T02:20:51;13.98;;;9.70;;
12441;SDS011;6285;48.804;9.220;2023-10-13T02:23:20;13.50;;;9.20;;
12441;SDS011;6285;48.804;9.220;2023-10-13T02:25:47;14.13;;;8.95;;
12441;SDS011;6285;48.804;9.220;2023-10-13T02:28:17;13.73;;;9.93;;
12441;SDS011;6285;48.804;9.220;2023-10-13T02:30:54;12.73;;;8.98;;
12441;SDS011;6285;48.804;9.220;2023-10-13T02:33:22;14.40;;;9.57;;
12441;SDS011;6285;48.804;9.220;2023-10-13T02:35:54;16.05;;;10.07;;
12441;SDS011;6285;48.804;9.220;2023-10-13T02:38:21;16.63;;;9.88;;
12441;SDS011;6285;48.804;9.220;2023-10-13T02:40:57;13.20;;;9.20;;
12441;SDS011;6285;48.804;9.220;2023-10-13T02:43:30;13.88;;;9.48;;
12441;SDS011;6285;48.804;9.220;2023-10-13T02:46:00;14.70;;;9.43;;
12441;SDS011;6285;48.804;9.220;2023-10-13T02:48:27;13.13;;;9.82;;
12441;SDS011;6285;48.804;9.220;2023-10-13T02:51:05;14.32;;;9.90;;
12441;SDS011;6285;48.804;9.220;2023-10-13T02:53:40;13.27;;;9.60;;
12441;SDS011;6285;48.804;9.220;2023-10-13T02:56:06;14.50;;;9.93;;
12441;SDS011;6285;48.804;9.220;2023-10-13T02:58:34;15.18;;;10.20;;
12441;SDS011;6285;48.804;9.220;2023-10-13T03:01:12;14.25;;;9.30;;
12441;SDS011;6285;48.804;9.220;2023-10-13T03:03:45;13.73;;;9.50;;
12441;SDS011;6285;48.804;9.220;2023-10-13T03:06:16;14.80;;;9.82;;
12441;SDS011;6285;48.804;9.220;2023-10-13T03:08:46;15.10;;;9.93;;
12441;SDS011;6285;48.804;9.220;2023-10-13T03:11:12;15.10;;;10.60;;
12441;SDS011;6285;48.804;9.220;2023-10-13T03:13:41;16.92;;;9.93;;
12441;SDS011;6285;48.804;9.220;2023-10-13T03:16:14;14.43;;;9.80;;
12441;SDS011;6285;48.804;9.220;2023-10-13T03:18:44;15.93;;;9.85;;
12441;SDS011;6285;48.804;9.220;2023-10-13T03:21:16;16.58;;;10.13;;
12441;SDS011;6285;48.804;9.220;2023-10-13T03:23:53;13.98;;;10.10;;
12441;SDS011;6285;48.804;9.220;2023-10-13T03:26:20;15.32;;;9.90;;
12441;SDS011;6285;48.804;9.220;2023-10-13T03:28:47;13.20;;;10.10;;
12441;SDS011;6285;48.804;9.220;2023-10-13T03:31:18;14.57;;;9.27;;
12441;SDS011;6285;48.804;9.220;2023-10-13T03:33:52;16.50;;;9.82;;
12441;SDS011;6285;48.804;9.220;2023-10-13T03:36:24;14.48;;;8.98;;
12441;SDS011;6285;48.804;9.220;2023-10-13T03:39:09;15.82;;;9.27;;
12441;SDS011;6285;48.804;9.220;2023-10-13T03:41:36;12.90;;;8.38;;
12441;SDS011;6285;48.804;9.220;2023-10-13T03:44:05;15.05;;;8.93;;
12441;SDS011;6285;48.804;9.220;2023-10-13T03:46:41;16.05;;;8.23;;
12441;SDS011;6285;48.804;9.220;2023-10-13T03:49:10;15.30;;;7.50;;
12441;SDS011;6285;48.804;9.220;2023-10-13T03:51:39;15.25;;;8.63;;
12441;SDS011;6285;48.804;9.220;2023-10-13T03:54:08;18.45;;;8.50;;
12441;SDS011;6285;48.804;9.220;2023-10-13T03:56:36;14.65;;;8.73;;
12441;SDS011;6285;48.804;9.220;2023-10-13T03:59:07;15.43;;;7.60;;
12441;SDS011;6285;48.804;9.220;2023-10-13T04:01:44;14.35;;;8.38;;
12441;SDS011;6285;48.804;9.220;2023-10-13T04:04:12;16.98;;;8.00;;
12441;SDS011;6285;48.804;9.220;2023-10-13T04:06:41;14.90;;;8.48;;
12441;SDS011;6285;48.804;9.220;2023-10-13T04:09:38;13.40;;;7.95;;
12441;SDS011;6285;48.804;9.220;2023-10-13T04:12:19;18.98;;;8.88;;
12441;SDS011;6285;48.804;9.220;2023-10-13T04:15:03;19.88;;;8.48;;
12441;SDS011;6285;48.804;9.220;2023-10-13T04:17:44;18.13;;;8.85;;
12441;SDS011;6285;48.804;9.220;2023-10-13T04:20:11;14.68;;;8.40;;
12441;SDS011;6285;48.804;9.220;2023-10-13T04:22:39;16.38;;;8.10;;
12441;SDS011;6285;48.804;9.220;2023-10-13T04:25:21;14.25;;;8.35;;
12441;SDS011;6285;48.804;9.220;2023-10-13T04:28:17;15.88;;;8.90;;
12441;SDS011;6285;48.804;9.220;2023-10-13T04:30:58;15.25;;;8.48;;
12441;SDS011;6285;48.804;9.220;2023-10-13T04:33:38;14.55;;;8.45;;
12441;SDS011;6285;48.804;9.220;2023-10-13T04:36:16;14.40;;;9.18;;
12441;SDS011;6285;48.804;9.220;2023-10-13T04:38:48;16.90;;;9.20;;
12441;SDS011;6285;48.804;9.220;2023-10-13T04:41:33;15.80;;;9.35;;
12441;SDS011;6285;48.804;9.220;2023-10-13T04:44:04;17.80;;;9.50;;
12441;SDS011;6285;48.804;9.220;2023-10-13T04:46:51;14.82;;;8.90;;
12441;SDS011;6285;48.804;9.220;2023-10-13T04:49:37;18.42;;;9.68;;
12441;SDS011;6285;48.804;9.220;2023-10-13T04:52:17;14.95;;;8.75;;
12441;SDS011;6285;48.804;9.220;2023-10-13T04:55:02;16.58;;;8.68;;
12441;SDS011;6285;48.804;9.220;2023-10-13T04:57:42;17.30;;;8.77;;
12441;SDS011;6285;48.804;9.220;2023-10-13T05:00:12;13.25;;;7.35;;
12441;SDS011;6285;48.804;9.220;2023-10-13T05:02:57;17.65;;;7.97;;
12441;SDS011;6285;48.804;9.220;2023-10-13T05:06:06;13.38;;;8.10;;
12441;SDS011;6285;48.804;9.220;2023-10-13T05:08:38;11.73;;;8.43;;
12441;SDS011;6285;48.804;9.220;2023-10-13T05:11:23;15.98;;;8.23;;
12441;SDS011;6285;48.804;9.220;2023-10-13T05:14:08;15.98;;;8.90;;
12441;SDS011;6285;48.804;9.220;2023-10-13T05:16:52;16.08;;;7.97;;
12441;SDS011;6285;48.804;9.220;2023-10-13T05:19:37;19.60;;;9.02;;
12441;SDS011;6285;48.804;9.220;2023-10-13T05:22:23;16.58;;;8.23;;
12441;SDS011;6285;48.804;9.220;2023-10-13T05:25:08;14.73;;;8.05;;
12441;SDS011;6285;48.804;9.220;2023-10-13T05:27:52;17.83;;;8.13;;
12441;SDS011;6285;48.804;9.220;2023-10-13T05:30:37;15.93;;;7.80;;
12441;SDS011;6285;48.804;9.220;2023-10-13T05:33:21;17.70;;;8.32;;
12441;SDS011;6285;48.804;9.220;2023-10-13T05:36:09;15.48;;;8.30;;
12441;SDS011;6285;48.804;9.220;2023-10-13T05:38:55;20.05;;;8.50;;
12441;SDS011;6285;48.804;9.220;2023-10-13T05:41:40;17.10;;;9.15;;
12441;SDS011;6285;48.804;9.220;2023-10-13T05:44:24;25.50;;;9.45;;
12441;SDS011;6285;48.804;9.220;2023-10-13T05:47:12;16.70;;;8.20;;
12441;SDS011;6285;48.804;9.220;2023-10-13T05:50:08;14.35;;;8.13;;
12441;SDS011;6285;48.804;9.220;2023-10-13T05:52:54;18.48;;;8.55;;
12441;SDS011;6285;48.804;9.220;2023-10-13T05:55:40;17.70;;;7.90;;
12441;SDS011;6285;48.804;9.220;2023-10-13T05:58:25;16.80;;;7.68;;
12441;SDS011;6285;48.804;9.220;2023-10-13T06:01:12;15.25;;;7.78;;
12441;SDS011;6285;48.804;9.220;2023-10-13T06:03:56;15.18;;;7.95;;
12441;SDS011;6285;48.804;9.220;2023-10-13T06:06:41;13.32;;;7.70;;
12441;SDS011;6285;48.804;9.220;2023-10-13T06:09:26;17.63;;;7.68;;
12441;SDS011;6285;48.804;9.220;2023-10-13T06:12:12;13.90;;;7.55;;
12441;SDS011;6285;48.804;9.220;2023-10-13T06:14:56;19.45;;;8.02;;
12441;SDS011;6285;48.804;9.220;2023-10-13T06:17:41;12.55;;;8.07;;
12441;SDS011;6285;48.804;9.220;2023-10-13T06:20:26;14.65;;;7.78;;
12441;SDS011;6285;48.804;9.220;2023-10-13T06:23:10;20.50;;;8.15;;
12441;SDS011;6285;48.804;9.220;2023-10-13T06:25:55;16.67;;;8.57;;
12441;SDS011;6285;48.804;9.220;2023-10-13T06:28:41;23.15;;;9.40;;
12441;SDS011;6285;48.804;9.220;2023-10-13T06:31:09;16.80;;;8.60;;
12441;SDS011;6285;48.804;9.220;2023-10-13T06:33:46;14.55;;;9.10;;
12441;SDS011;6285;48.804;9.220;2023-10-13T06:36:13;15.63;;;8.85;;
12441;SDS011;6285;48.804;9.220;2023-10-13T06:38:42;19.35;;;9.32;;
12441;SDS011;6285;48.804;9.220;2023-10-13T06:41:09;15.13;;;8.75;;
12441;SDS011;6285;48.804;9.220;2023-10-13T06:43:46;20.95;;;8.82;;
12441;SDS011;6285;48.804;9.220;2023-10-13T06:46:24;22.85;;;9.25;;
12441;SDS011;6285;48.804;9.220;2023-10-13T06:48:53;18.52;;;9.18;;
12441;SDS011;6285;48.804;9.220;2023-10-13T06:51:20;18.17;;;8.93;;
12441;SDS011;6285;48.804;9.220;2023-10-13T06:53:47;19.98;;;9.07;;
12441;SDS011;6285;48.804;9.220;2023-10-13T06:56:21;18.77;;;9.82;;
12441;SDS011;6285;48.804;9.220;2023-10-13T06:58:53;19.80;;;9.25;;
12441;SDS011;6285;48.804;9.220;2023-10-13T07:01:24;18.48;;;10.38;;
12441;SDS011;6285;48.804;9.220;2023-10-13T07:03:51;18.25;;;8.85;;
12441;SDS011;6285;48.804;9.220;2023-10-13T07:06:19;20.95;;;9.27;;
12441;SDS011;6285;48.804;9.220;2023-10-13T07:08:47;17.77;;;8.80;;
12441;SDS011;6285;48.804;9.220;2023-10-13T07:11:18;16.55;;;9.35;;
12441;SDS011;6285;48.804;9.220;2023-10-13T07:13:47;19.45;;;8.20;;
12441;SDS011;6285;48.804;9.220;2023-10-13T07:16:18;18.63;;;8.68;;
12441;SDS011;6285;48.804;9.220;2023-10-13T07:18:45;20.23;;;9.27;;
12441;SDS011;6285;48.804;9.220;2023-10-13T07:21:18;23.98;;;9.32;;
12441;SDS011;6285;48.804;9.220;2023-10-13T07:23:49;16.90;;;8.57;;
12441;SDS011;6285;48.804;9.220;2023-10-13T07:26:33;21.50;;;9.52;;
12441;SDS011;6285;48.804;9.220;2023-10-13T07:29:00;16.25;;;9.18;;
12441;SDS011;6285;48.804;9.220;2023-10-13T07:31:29;14.90;;;8.77;;
12441;SDS011;6285;48.804;9.220;2023-10-13T07:33:56;17.58;;;8.90;;
12441;SDS011;6285;48.804;9.220;2023-10-13T07:36:30;25.50;;;8.75;;
12441;SDS011;6285;48.804;9.220;2023-10-13T07:39:04;16.10;;;9.10;;
12441;SDS011;6285;48.804;9.220;2023-10-13T07:41:45;20.58;;;8.98;;
12441;SDS011;6285;48.804;9.220;2023-10-13T07:44:18;15.98;;;8.73;;
12441;SDS011;6285;48.804;9.220;2023-10-13T07:46:51;16.25;;;9.23;;
12441;SDS011;6285;48.804;9.220;2023-10-13T07:49:26;21.08;;;9.45;;
12441;SDS011;6285;48.804;9.220;2023-10-13T07:51:56;12.25;;;8.82;;
12441;SDS011;6285;48.804;9.220;2023-10-13T07:54:25;15.13;;;7.95;;
12441;SDS011;6285;48.804;9.220;2023-10-13T07:56:52;16.25;;;7.95;;
12441;SDS011;6285;48.804;9.220;2023-10-13T07:59:21;19.20;;;8.70;;
12441;SDS011;6285;48.804;9.220;2023-10-13T08:01:50;15.25;;;7.85;;
12441;SDS011;6285;48.804;9.220;2023-10-13T08:04:31;17.90;;;8.32;;
12441;SDS011;6285;48.804;9.220;2023-10-13T08:07:00;20.20;;;8.38;;
12441;SDS011;6285;48.804;9.220;2023-10-13T08:09:37;16.30;;;7.63;;
12441;SDS011;6285;48.804;9.220;2023-10-13T08:12:06;13.18;;;7.80;;
12441;SDS011;6285;48.804;9.220;2023-10-13T08:14:36;11.80;;;7.45;;
12441;SDS011;6285;48.804;9.220;2023-10-13T08:17:06;12.63;;;7.25;;
12441;SDS011;6285;48.804;9.220;2023-10-13T08:19:35;14.32;;;7.10;;
12441;SDS011;6285;48.804;9.220;2023-10-13T08:22:09;17.95;;;7.25;;
12441;SDS011;6285;48.804;9.220;2023-10-13T08:25:01;19.67;;;7.78;;
12441;SDS011;6285;48.804;9.220;2023-10-13T08:27:45;19.92;;;7.55;;
12441;SDS011;6285;48.804;9.220;2023-10-13T08:30:30;12.63;;;7.15;;
12441;SDS011;6285;48.804;9.220;2023-10-13T08:33:08;15.25;;;7.10;;
12441;SDS011;6285;48.804;9.220;2023-10-13T08:35:42;13.73;;;7.15;;
12441;SDS011;6285;48.804;9.220;2023-10-13T08:38:30;18.90;;;7.35;;
12441;SDS011;6285;48.804;9.220;2023-10-13T08:41:15;15.60;;;7.70;;
12441;SDS011;6285;48.804;9.220;2023-10-13T08:43:55;13.68;;;6.70;;
12441;SDS011;6285;48.804;9.220;2023-10-13T08:46:34;11.35;;;6.30;;
12441;SDS011;6285;48.804;9.220;2023-10-13T08:49:28;13.55;;;6.07;;
12441;SDS011;6285;48.804;9.220;2023-10-13T08:51:55;9.13;;;5.65;;
12441;SDS011;6285;48.804;9.220;2023-10-13T08:54:32;12.88;;;6.25;;
12441;SDS011;6285;48.804;9.220;2023-10-13T08:57:04;11.02;;;5.38;;
12441;SDS011;6285;48.804;9.220;2023-10-13T08:59:58;14.48;;;6.03;;
12441;SDS011;6285;48.804;9.220;2023-10-13T09:02:45;15.43;;;5.60;;
12441;SDS011;6285;48.804;9.220;2023-10-13T09:05:46;10.60;;;5.97;;
12441;SDS011;6285;48.804;9.220;2023-10-13T09:08:26;14.25;;;5.90;;
12441;SDS011;6285;48.804;9.220;2023-10-13T09:11:01;8.65;;;5.13;;
12441;SDS011;6285;48.804;9.220;2023-10-13T09:13:36;12.43;;;4.78;;
12441;SDS011;6285;48.804;9.220;2023-10-13T09:16:09;10.75;;;4.88;;
12441;SDS011;6285;48.804;9.220;2023-10-13T09:18:41;10.95;;;4.93;;
12441;SDS011;6285;48.804;9.220;2023-10-13T09:21:12;8.30;;;4.20;;
12441;SDS011;6285;48.804;9.220;2023-10-13T09:24:08;11.07;;;4.70;;
12441;SDS011;6285;48.804;9.220;2023-10-13T09:26:46;11.48;;;4.55;;
12441;SDS011;6285;48.804;9.220;2023-10-13T09:29:15;18.10;;;4.80;;
12441;SDS011;6285;48.804;9.220;2023-10-13T09:31:44;9.10;;;4.20;;
12441;SDS011;6285;48.804;9.220;2023-10-13T09:34:19;13.20;;;4.85;;
12441;SDS011;6285;48.804;9.220;2023-10-13T09:36:48;10.50;;;4.63;;
12441;SDS011;6285;48.804;9.220;2023-10-13T09:39:21;10.13;;;4.85;;
12441;SDS011;6285;48.804;9.220;2023-10-13T09:41:59;13.13;;;4.97;;
12441;SDS011;6285;48.804;9.220;2023-10-13T09:44:26;12.88;;;4.45;;
12441;SDS011;6285;48.804;9.220;2023-10-13T09:46:55;9.98;;;4.95;;
12441;SDS011;6285;48.804;9.220;2023-10-13T09:49:28;13.52;;;5.50;;
12441;SDS011;6285;48.804;9.220;2023-10-13T09:52:11;11.00;;;4.40;;
12441;SDS011;6285;48.804;9.220;2023-10-13T09:54:44;7.47;;;3.47;;
12441;SDS011;6285;48.804;9.220;2023-10-13T09:57:31;7.75;;;3.65;;
12441;SDS011;6285;48.804;9.220;2023-10-13T10:00:00;8.80;;;3.55;;
12441;SDS011;6285;48.804;9.220;2023-10-13T10:02:32;8.18;;;3.20;;
12441;SDS011;6285;48.804;9.220;2023-10-13T10:04:59;10.10;;;4.00;;
12441;SDS011;6285;48.804;9.220;2023-10-13T10:07:40;8.73;;;3.70;;
12441;SDS011;6285;48.804;9.220;2023-10-13T10:10:09;7.28;;;3.40;;
12441;SDS011;6285;48.804;9.220;2023-10-13T10:12:38;7.93;;;3.60;;
12441;SDS011;6285;48.804;9.220;2023-10-13T10:15:09;6.25;;;3.67;;
12441;SDS011;6285;48.804;9.220;2023-10-13T10:17:39;5.97;;;3.50;;
12441;SDS011;6285;48.804;9.220;2023-10-13T10:20:07;7.45;;;3.20;;
12441;SDS011;6285;48.804;9.220;2023-10-13T10:22:41;8.40;;;5.32;;
12441;SDS011;6285;48.804;9.220;2023-10-13T10:25:14;8.00;;;3.55;;
12441;SDS011;6285;48.804;9.220;2023-10-13T10:28:00;8.65;;;3.65;;
12441;SDS011;6285;48.804;9.220;2023-10-13T10:30:31;9.43;;;3.75;;
12441;SDS011;6285;48.804;9.220;2023-10-13T10:33:01;10.10;;;3.75;;
12441;SDS011;6285;48.804;9.220;2023-10-13T10:35:37;9.30;;;3.53;;
12441;SDS011;6285;48.804;9.220;2023-10-13T10:38:10;8.40;;;3.47;;
12441;SDS011;6285;48.804;9.220;2023-10-13T10:40:50;8.18;;;3.67;;
12441;SDS011;6285;48.804;9.220;2023-10-13T10:43:22;7.70;;;3.60;;
12441;SDS011;6285;48.804;9.220;2023-10-13T10:45:51;9.52;;;4.13;;
12441;SDS011;6285;48.804;9.220;2023-10-13T10:48:24;9.68;;;5.10;;
12441;SDS011;6285;48.804;9.220;2023-10-13T10:50:56;11.43;;;5.07;;
12441;SDS011;6285;48.804;9.220;2023-10-13T10:53:40;7.53;;;4.43;;
12441;SDS011;6285;48.804;9.220;2023-10-13T10:56:10;8.77;;;3.72;;
12441;SDS011;6285;48.804;9.220;2023-10-13T10:58:49;7.95;;;3.72;;
12441;SDS011;6285;48.804;9.220;2023-10-13T11:01:20;7.50;;;3.70;;
12441;SDS011;6285;48.804;9.220;2023-10-13T11:03:54;7.28;;;3.22;;
12441;SDS011;6285;48.804;9.220;2023-10-13T11:06:23;10.82;;;3.47;;
12441;SDS011;6285;48.804;9.220;2023-10-13T11:09:01;10.20;;;3.58;;
12441;SDS011;6285;48.804;9.220;2023-10-13T11:11:30;6.93;;;3.60;;
12441;SDS011;6285;48.804;9.220;2023-10-13T11:14:00;10.98;;;4.00;;
12441;SDS011;6285;48.804;9.220;2023-10-13T11:16:45;8.20;;;3.80;;
12441;SDS011;6285;48.804;9.220;2023-10-13T11:19:16;12.85;;;4.50;;
12441;SDS011;6285;48.804;9.220;2023-10-13T11:21:45;5.88;;;3.28;;
12441;SDS011;6285;48.804;9.220;2023-10-13T11:24:14;9.02;;;3.88;;
12441;SDS011;6285;48.804;9.220;2023-10-13T11:26:42;8.82;;;3.63;;
12441;SDS011;6285;48.804;9.220;2023-10-13T11:29:14;8.35;;;3.42;;
12441;SDS011;6285;48.804;9.220;2023-10-13T11:31:44;6.38;;;3.33;;
12441;SDS011;6285;48.804;9.220;2023-10-13T11:34:11;4.72;;;3.22;;
12441;SDS011;6285;48.804;9.220;2023-10-13T11:36:41;9.40;;;3.30;;
12441;SDS011;6285;48.804;9.220;2023-10-13T11:39:08;8.55;;;3.67;;
12441;SDS011;6285;48.804;9.220;2023-10-13T11:41:43;9.77;;;4.07;;
12441;SDS011;6285;48.804;9.220;2023-10-13T11:44:18;9.50;;;4.03;;
12441;SDS011;6285;48.804;9.220;2023-10-13T11:46:56;11.90;;;3.83;;
12441;SDS011;6285;48.804;9.220;2023-10-13T11:49:41;9.35;;;3.40;;
12441;SDS011;6285;48.804;9.220;2023-10-13T11:52:08;6.28;;;3.33;;
12441;SDS011;6285;48.804;9.220;2023-10-13T11:54:42;7.65;;;3.20;;
12441;SDS011;6285;48.804;9.220;2023-10-13T11:57:10;8.02;;;3.47;;
12441;SDS011;6285;48.804;9.220;2023-10-13T11:59:37;9.65;;;3.42;;
12441;SDS011;6285;48.804;9.220;2023-10-13T12:02:12;9.77;;;3.47;;
12441;SDS011;6285;48.804;9.220;2023-10-13T12:04:56;10.48;;;3.55;;
12441;SDS011;6285;48.804;9.220;2023-10-13T12:07:24;8.95;;;3.47;;
12441;SDS011;6285;48.804;9.220;2023-10-13T12:10:10;5.50;;;3.30;;
12441;SDS011;6285;48.804;9.220;2023-10-13T12:12:43;7.20;;;3.65;;
12441;SDS011;6285;48.804;9.220;2023-10-13T12:15:11;6.43;;;3.90;;
12441;SDS011;6285;48.804;9.220;2023-10-13T12:17:51;9.68;;;3.85;;
12441;SDS011;6285;48.804;9.220;2023-10-13T12:20:18;6.43;;;3.33;;
12441;SDS011;6285;48.804;9.220;2023-10-13T12:22:57;5.90;;;3.20;;
12441;SDS011;6285;48.804;9.220;2023-10-13T12:25:34;9.55;;;3.50;;
12441;SDS011;6285;48.804;9.220;2023-10-13T12:28:10;11.20;;;3.58;;
12441;SDS011;6285;48.804;9.220;2023-10-13T12:30:43;8.13;;;3.30;;
12441;SDS011;6285;48.804;9.220;2023-10-13T12:33:15;7.25;;;3.78;;
12441;SDS011;6285;48.804;9.220;2023-10-13T12:35:49;8.25;;;3.97;;
12441;SDS011;6285;48.804;9.220;2023-10-13T12:38:28;7.82;;;5.00;;
12441;SDS011;6285;48.804;9.220;2023-10-13T12:41:18;9.23;;;3.88;;
12441;SDS011;6285;48.804;9.220;2023-10-13T12:44:05;12.68;;;3.80;;
12441;SDS011;6285;48.804;9.220;2023-10-13T12:46:50;8.55;;;3.50;;
12441;SDS011;6285;48.804;9.220;2023-10-13T12:49:35;11.48;;;3.67;;
12441;SDS011;6285;48.804;9.220;2023-10-13T12:52:26;4.95;;;3.58;;
12441;SDS011;6285;48.804;9.220;2023-10-13T12:54:57;52.55;;;29.40;;
12441;SDS011;6285;48.804;9.220;2023-10-13T12:57:32;7.25;;;4.35;;
12441;SDS011;6285;48.804;9.220;2023-10-13T13:00:00;10.80;;;5.65;;
12441;SDS011;6285;48.804;9.220;2023-10-13T13:02:41;30.23;;;15.60;;
12441;SDS011;6285;48.804;9.220;2023-10-13T13:05:08;5.28;;;3.40;;
12441;SDS011;6285;48.804;9.220;2023-10-13T13:07:37;9.65;;;4.35;;
12441;SDS011;6285;48.804;9.220;2023-10-13T13:10:12;9.32;;;4.00;;
12441;SDS011;6285;48.804;9.220;2023-10-13T13:12:39;9.15;;;3.88;;
12441;SDS011;6285;48.804;9.220;2023-10-13T13:15:08;8.60;;;5.97;;
12441;SDS011;6285;48.804;9.220;2023-10-13T13:17:36;14.88;;;8.10;;
12441;SDS011;6285;48.804;9.220;2023-10-13T13:20:04;9.95;;;4.47;;
12441;SDS011;6285;48.804;9.220;2023-10-13T13:22:36;8.82;;;4.40;;
12441;SDS011;6285;48.804;9.220;2023-10-13T13:25:03;10.07;;;6.32;;
12441;SDS011;6285;48.804;9.220;2023-10-13T13:27:34;9.95;;;5.80;;
12441;SDS011;6285;48.804;9.220;2023-10-13T13:30:02;14.13;;;5.97;;
12441;SDS011;6285;48.804;9.220;2023-10-13T13:32:38;8.45;;;4.20;;
12441;SDS011;6285;48.804;9.220;2023-10-13T13:35:10;10.70;;;4.38;;
12441;SDS011;6285;48.804;9.220;2023-10-13T13:37:40;10.77;;;5.03;;
12441;SDS011;6285;48.804;9.220;2023-10-13T13:40:09;10.57;;;4.47;;
12441;SDS011;6285;48.804;9.220;2023-10-13T13:42:40;30.73;;;13.25;;
12441;SDS011;6285;48.804;9.220;2023-10-13T13:45:11;11.60;;;5.07;;
12441;SDS011;6285;48.804;9.220;2023-10-13T13:47:45;11.73;;;5.70;;
12441;SDS011;6285;48.804;9.220;2023-10-13T13:50:12;11.30;;;3.80;;
12441;SDS011;6285;48.804;9.220;2023-10-13T13:52:44;12.57;;;3.95;;
12441;SDS011;6285;48.804;9.220;2023-10-13T13:55:12;9.95;;;3.35;;
12441;SDS011;6285;48.804;9.220;2023-10-13T13:57:42;7.10;;;3.33;;
12441;SDS011;6285;48.804;9.220;2023-10-13T14:00:09;10.73;;;3.70;;
12441;SDS011;6285;48.804;9.220;2023-10-13T14:02:41;10.95;;;4.07;;
12441;SDS011;6285;48.804;9.220;2023-10-13T14:05:13;6.68;;;3.78;;
12441;SDS011;6285;48.804;9.220;2023-10-13T14:07:41;7.32;;;3.85;;
12441;SDS011;6285;48.804;9.220;2023-10-13T14:10:13;12.18;;;4.07;;
12441;SDS011;6285;48.804;9.220;2023-10-13T14:12:59;9.13;;;3.72;;
12441;SDS011;6285;48.804;9.220;2023-10-13T14:15:32;6.50;;;3.72;;
12441;SDS011;6285;48.804;9.220;2023-10-13T14:18:04;9.60;;;3.38;;
12441;SDS011;6285;48.804;9.220;2023-10-13T14:20:39;7.68;;;3.72;;
12441;SDS011;6285;48.804;9.220;2023-10-13T14:23:07;6.25;;;3.60;;
12441;SDS011;6285;48.804;9.220;2023-10-13T14:25:36;9.10;;;3.67;;
12441;SDS011;6285;48.804;9.220;2023-10-13T14:28:04;8.15;;;3.30;;
12441;SDS011;6285;48.804;9.220;2023-10-13T14:30:31;7.43;;;3.38;;
12441;SDS011;6285;48.804;9.220;2023-10-13T14:32:58;6.25;;;3.28;;
12441;SDS011;6285;48.804;9.220;2023-10-13T14:35:26;6.88;;;3.22;;
12441;SDS011;6285;48.804;9.220;2023-10-13T14:37:55;7.97;;;3.55;;
12441;SDS011;6285;48.804;9.220;2023-10-13T14:40:22;7.15;;;3.35;;
12441;SDS011;6285;48.804;9.220;2023-10-13T14:42:49;6.10;;;3.55;;
12441;SDS011;6285;48.804;9.220;2023-10-13T14:45:16;9.57;;;4.18;;
12441;SDS011;6285;48.804;9.220;2023-10-13T14:47:43;5.55;;;3.17;;
12441;SDS011;6285;48.804;9.220;2023-10-13T14:50:11;7.95;;;3.80;;
12441;SDS011;6285;48.804;9.220;2023-10-13T14:52:44;9.60;;;3.53;;
12441;SDS011;6285;48.804;9.220;2023-10-13T14:55:13;8.35;;;3.25;;
12441;SDS011;6285;48.804;9.220;2023-10-13T14:57:46;4.70;;;3.28;;
12441;SDS011;6285;48.804;9.220;2023-10-13T15:00:15;7.57;;;3.83;;
12441;SDS011;6285;48.804;9.220;2023-10-13T15:02:49;10.43;;;3.35;;
12441;SDS011;6285;48.804;9.220;2023-10-13T15:05:17;5.32;;;3.40;;
12441;SDS011;6285;48.804;9.220;2023-10-13T15:07:44;5.40;;;3.20;;
12441;SDS011;6285;48.804;9.220;2023-10-13T15:10:13;4.88;;;2.90;;
12441;SDS011;6285;48.804;9.220;2023-10-13T15:12:41;4.75;;;3.22;;
12441;SDS011;6285;48.804;9.220;2023-10-13T15:15:10;4.68;;;2.88;;
12441;SDS011;6285;48.804;9.220;2023-10-13T15:17:41;9.63;;;4.47;;
12441;SDS011;6285;48.804;9.220;2023-10-13T15:20:11;7.57;;;3.30;;
12441;SDS011;6285;48.804;9.220;2023-10-13T15:22:42;7.45;;;3.10;;
12441;SDS011;6285;48.804;9.220;2023-10-13T15:25:09;7.30;;;3.38;;
12441;SDS011;6285;48.804;9.220;2023-10-13T15:27:47;6.40;;;3.08;;
12441;SDS011;6285;48.804;9.220;2023-10-13T15:30:20;5.68;;;2.72;;